| time (UTC) | temp F | wind direction | speed MPH | gust MPH | rain 1hr in | rain 24hr in | rain mn in | humidity % | barometer mb |
| 20260502130323 | 23 | 42 | 0.0 | 0.0 | 0.00 | 0.00 | 0.00 | 65 | 1025.2 |
| 20260502123809 | 22 | 42 | 1.0 | 1.0 | 0.00 | 0.00 | 0.00 | 66 | 1025.0 |
| 20260502123306 | 22 | 0 | 2.0 | 2.0 | 0.00 | 0.00 | 0.00 | 66 | 1025.1 |
| 20260502122802 | 22 | 8 | 2.0 | 2.0 | 0.00 | 0.00 | 0.00 | 65 | 1024.9 |
| 20260502122258 | 22 | 342 | 2.0 | 2.0 | 0.00 | 0.00 | 0.00 | 66 | 1025.0 |
| 20260502121757 | 22 | 63 | 1.0 | 1.0 | 0.00 | 0.00 | 0.00 | 66 | 1024.9 |
| 20260502121254 | 22 | 350 | 2.0 | 2.0 | 0.00 | 0.00 | 0.00 | 66 | 1024.7 |
| 20260502120751 | 22 | 329 | 2.0 | 2.0 | 0.00 | 0.00 | 0.00 | 67 | 1025.0 |
| 20260502120248 | 22 | 345 | 2.0 | 2.0 | 0.00 | 0.00 | 0.00 | 68 | 1024.9 |
| 20260502115745 | 22 | 332 | 2.0 | 3.0 | 0.00 | 0.00 | 0.00 | 69 | 1024.9 |
| 20260502115242 | 22 | 354 | 3.0 | 3.0 | 0.00 | 0.00 | 0.00 | 69 | 1025.1 |
| 20260502114738 | 22 | 3 | 3.0 | 3.0 | 0.00 | 0.00 | 0.00 | 68 | 1024.9 |
| 20260502114235 | 22 | 31 | 2.0 | 2.0 | 0.00 | 0.00 | 0.00 | 67 | 1025.0 |
| 20260502113732 | 22 | 77 | 2.0 | 2.0 | 0.00 | 0.00 | 0.00 | 67 | 1024.9 |
| 20260502113230 | 22 | 21 | 2.0 | 2.0 | 0.00 | 0.00 | 0.00 | 66 | 1025.1 |
| 20260502112728 | 23 | 41 | 2.0 | 2.0 | 0.00 | 0.00 | 0.00 | 65 | 1025.0 |
| 20260502112225 | 23 | 341 | 2.0 | 2.0 | 0.00 | 0.00 | 0.00 | 64 | 1025.0 |
| 20260502111722 | 23 | 44 | 1.0 | 1.0 | 0.00 | 0.00 | 0.00 | 64 | 1024.7 |
| 20260502111220 | 23 | 38 | 1.0 | 1.0 | 0.00 | 0.00 | 0.00 | 64 | 1025.0 |
| 20260502110717 | 23 | 29 | 2.0 | 2.0 | 0.00 | 0.00 | 0.00 | 64 | 1024.9 |
| 20260502110215 | 23 | 29 | 2.0 | 2.0 | 0.00 | 0.00 | 0.00 | 62 | 1025.1 |
| 20260502105713 | 24 | 71 | 1.0 | 2.0 | 0.00 | 0.00 | 0.00 | 62 | 1024.9 |
| 20260502105209 | 24 | 91 | 0.0 | 0.0 | 0.00 | 0.00 | 0.00 | 63 | 1025.0 |
| 20260502104706 | 24 | 98 | 0.0 | 0.0 | 0.00 | 0.00 | 0.00 | 62 | 1025.1 |
| 20260502104204 | 24 | 101 | 0.0 | 0.0 | 0.00 | 0.00 | 0.00 | 62 | 1025.1 |
| 20260502103701 | 25 | 102 | 0.0 | 0.0 | 0.00 | 0.00 | 0.00 | 61 | 1025.1 |
| 20260502103159 | 25 | 140 | 1.0 | 1.0 | 0.00 | 0.00 | 0.00 | 61 | 1025.1 |
| 20260502102655 | 25 | 25 | 1.0 | 1.0 | 0.00 | 0.00 | 0.00 | 61 | 1025.1 |
| 20260502102152 | 24 | 70 | 1.0 | 1.0 | 0.00 | 0.00 | 0.00 | 64 | 1024.9 |
| 20260502101650 | 24 | 48 | 1.0 | 2.0 | 0.00 | 0.00 | 0.00 | 64 | 1024.9 |
| 20260502101148 | 24 | 352 | 2.0 | 2.0 | 0.00 | 0.00 | 0.00 | 63 | 1025.1 |
| 20260502100646 | 24 | 313 | 2.0 | 3.0 | 0.00 | 0.00 | 0.00 | 59 | 1025.0 |
| 20260502100144 | 23 | 312 | 2.0 | 3.0 | 0.00 | 0.00 | 0.00 | 60 | 1024.7 |
| 20260502091118 | 25 | 17 | 1.0 | 2.0 | 0.00 | 0.00 | 0.00 | 56 | 1024.7 |
| 20260502090615 | 25 | 76 | 1.0 | 1.0 | 0.00 | 0.00 | 0.00 | 55 | 1024.7 |
| 20260502090113 | 25 | 36 | 1.0 | 1.0 | 0.00 | 0.00 | 0.00 | 54 | 1024.7 |
| 20260502071510 | 29 | 53 | 1.0 | 2.0 | 0.00 | 0.00 | 0.00 | 60 | 1024.6 |
| 20260502071008 | 28 | 336 | 2.0 | 2.0 | 0.00 | 0.00 | 0.00 | 60 | 1024.6 |
| 20260502070506 | 27 | 259 | 2.0 | 2.0 | 0.00 | 0.00 | 0.00 | 61 | 1024.7 |
| 20260502070004 | 28 | 295 | 2.0 | 3.0 | 0.00 | 0.00 | 0.00 | 60 | 1024.6 |
| 20260502065502 | 30 | 0 | 1.0 | 2.0 | 0.00 | 0.00 | 0.00 | 56 | 1024.5 |
| 20260502065000 | 29 | 286 | 2.0 | 2.0 | 0.00 | 0.00 | 0.00 | 55 | 1024.6 |
| 20260502064458 | 30 | 287 | 3.0 | 3.0 | 0.00 | 0.00 | 0.00 | 51 | 1024.6 |
| 20260502063954 | 31 | 97 | 0.0 | 0.0 | 0.00 | 0.00 | 0.00 | 49 | 1024.5 |
| 20260502063452 | 32 | 100 | 0.0 | 1.0 | 0.00 | 0.00 | 0.00 | 50 | 1024.2 |
| 20260502062949 | 32 | 95 | 0.0 | 0.0 | 0.00 | 0.00 | 0.00 | 50 | 1024.2 |
| 20260502062446 | 33 | 42 | 1.0 | 2.0 | 0.00 | 0.00 | 0.00 | 50 | 1024.2 |
| 20260502061945 | 33 | 81 | 1.0 | 1.0 | 0.00 | 0.00 | 0.00 | 52 | 1024.4 |
| 20260502061443 | 33 | 99 | 0.0 | 0.0 | 0.00 | 0.00 | 0.00 | 53 | 1024.1 |
| 20260502060938 | 33 | 88 | 0.0 | 0.0 | 0.00 | 0.00 | 0.00 | 53 | 1023.9 |
| 20260502060434 | 34 | 102 | 0.0 | 0.0 | 0.00 | 0.00 | 0.00 | 53 | 1024.4 |
| 20260502055931 | 34 | 39 | 1.0 | 1.0 | 0.00 | 0.00 | 0.00 | 53 | 1024.4 |
| 20260502055429 | 35 | 261 | 4.0 | 4.0 | 0.00 | 0.00 | 0.00 | 53 | 1024.2 |
| 20260502054923 | 35 | 222 | 3.0 | 4.0 | 0.00 | 0.00 | 0.00 | 52 | 1024.2 |
| 20260502054420 | 35 | 104 | 0.0 | 0.0 | 0.00 | 0.00 | 0.00 | 51 | 1024.5 |
| 20260502053918 | 35 | 149 | 1.0 | 1.0 | 0.00 | 0.00 | 0.00 | 51 | 1024.2 |
| 20260502053415 | 35 | 108 | 0.0 | 0.0 | 0.00 | 0.00 | 0.00 | 50 | 1024.2 |
| 20260502052913 | 35 | 356 | 2.0 | 2.0 | 0.00 | 0.00 | 0.00 | 49 | 1024.2 |
| 20260502052411 | 35 | 286 | 2.0 | 3.0 | 0.00 | 0.00 | 0.00 | 49 | 1024.1 |
| 20260502051908 | 34 | 104 | 0.0 | 0.0 | 0.00 | 0.00 | 0.00 | 49 | 1024.0 |
| 20260502051406 | 35 | 88 | 1.0 | 1.0 | 0.00 | 0.00 | 0.00 | 47 | 1023.7 |
| 20260502050903 | 35 | 97 | 0.0 | 0.0 | 0.00 | 0.00 | 0.00 | 47 | 1023.9 |
| 20260502050359 | 36 | 203 | 1.0 | 2.0 | 0.00 | 0.00 | 0.00 | 45 | 1023.9 |
| 20260502045856 | 37 | 76 | 0.0 | 1.0 | 0.00 | 0.00 | 0.00 | 43 | 1023.7 |
| 20260502045352 | 36 | 347 | 3.0 | 3.0 | 0.00 | 0.00 | 0.00 | 44 | 1023.9 |
| 20260502044849 | 37 | 36 | 1.0 | 2.0 | 0.00 | 0.00 | 0.00 | 44 | 1023.9 |
| 20260502044345 | 37 | 127 | 0.0 | 0.0 | 0.00 | 0.00 | 0.00 | 44 | 1023.7 |
| 20260502043842 | 38 | 248 | 3.0 | 3.0 | 0.00 | 0.00 | 0.00 | 44 | 1023.7 |
| 20260502043340 | 39 | 256 | 3.0 | 3.0 | 0.00 | 0.00 | 0.00 | 41 | 1023.7 |
| 20260502042840 | 41 | 205 | 2.0 | 3.0 | 0.00 | 0.00 | 0.00 | 39 | 1023.5 |
| 20260502042337 | 40 | 125 | 0.0 | 0.0 | 0.00 | 0.00 | 0.00 | 38 | 1023.5 |
| 20260502041835 | 40 | 98 | 1.0 | 1.0 | 0.00 | 0.00 | 0.00 | 38 | 1023.6 |
| 20260502041331 | 40 | 57 | 1.0 | 1.0 | 0.00 | 0.00 | 0.00 | 38 | 1023.5 |
| 20260502040829 | 38 | 335 | 1.0 | 1.0 | 0.00 | 0.00 | 0.00 | 43 | 1023.7 |
| 20260502040326 | 37 | 189 | 2.0 | 3.0 | 0.00 | 0.00 | 0.00 | 44 | 1023.7 |
| 20260502035822 | 37 | 198 | 4.0 | 4.0 | 0.00 | 0.00 | 0.00 | 46 | 1023.6 |
| 20260502035319 | 40 | 124 | 2.0 | 2.0 | 0.00 | 0.00 | 0.00 | 34 | 1023.4 |
| 20260502034816 | 41 | 156 | 1.0 | 2.0 | 0.00 | 0.00 | 0.00 | 33 | 1023.4 |
| 20260502034309 | 40 | 63 | 0.0 | 0.0 | 0.00 | 0.00 | 0.00 | 34 | 1023.1 |
| 20260502033807 | 41 | 165 | 1.0 | 2.0 | 0.00 | 0.00 | 0.00 | 33 | 1023.1 |
| 20260502033304 | 41 | 336 | 2.0 | 2.0 | 0.00 | 0.00 | 0.00 | 33 | 1023.1 |
| 20260502032801 | 43 | 334 | 4.0 | 4.0 | 0.00 | 0.00 | 0.00 | 32 | 1023.0 |
| 20260502032257 | 44 | 295 | 3.0 | 3.0 | 0.00 | 0.00 | 0.00 | 31 | 1023.0 |
| 20260502031755 | 43 | 87 | 0.0 | 1.0 | 0.00 | 0.00 | 0.00 | 33 | 1022.8 |
| 20260502031252 | 44 | 107 | 0.0 | 0.0 | 0.00 | 0.00 | 0.00 | 33 | 1022.9 |
| 20260502030751 | 48 | 353 | 3.0 | 3.0 | 0.00 | 0.00 | 0.00 | 31 | 1022.5 |
| 20260502030248 | 49 | 203 | 1.0 | 2.0 | 0.00 | 0.00 | 0.00 | 29 | 1022.5 |
| 20260502025745 | 50 | 142 | 0.0 | 1.0 | 0.00 | 0.00 | 0.00 | 28 | 1022.4 |
| 20260502025243 | 51 | 145 | 1.0 | 1.0 | 0.00 | 0.00 | 0.00 | 28 | 1022.0 |
| 20260502024741 | 50 | 136 | 1.0 | 1.0 | 0.00 | 0.00 | 0.00 | 28 | 1022.3 |
| 20260502024238 | 51 | 115 | 0.0 | 0.0 | 0.00 | 0.00 | 0.00 | 27 | 1022.3 |
| 20260502023736 | 51 | 112 | 0.0 | 0.0 | 0.00 | 0.00 | 0.00 | 26 | 1022.3 |
| 20260502023234 | 52 | 125 | 0.0 | 0.0 | 0.00 | 0.00 | 0.00 | 25 | 1022.0 |
| 20260502022731 | 53 | 118 | 0.0 | 0.0 | 0.00 | 0.00 | 0.00 | 25 | 1022.0 |
| 20260502022227 | 53 | 155 | 1.0 | 2.0 | 0.00 | 0.00 | 0.00 | 24 | 1021.9 |
| 20260502021724 | 54 | 135 | 1.0 | 1.0 | 0.00 | 0.00 | 0.00 | 24 | 1021.9 |
| 20260502021222 | 54 | 157 | 1.0 | 1.0 | 0.00 | 0.00 | 0.00 | 23 | 1022.2 |
| 20260502020719 | 55 | 139 | 1.0 | 1.0 | 0.00 | 0.00 | 0.00 | 24 | 1022.0 |
| 20260502020216 | 55 | 159 | 1.0 | 1.0 | 0.00 | 0.00 | 0.00 | 24 | 1021.8 |
| 20260502015715 | 55 | 193 | 2.0 | 2.0 | 0.00 | 0.00 | 0.00 | 24 | 1021.9 |
| 20260502015210 | 56 | 178 | 3.0 | 3.0 | 0.00 | 0.00 | 0.00 | 22 | 1021.8 |
| 20260502014708 | 57 | 179 | 3.0 | 4.0 | 0.00 | 0.00 | 0.00 | 22 | 1021.9 |
| 20260502014205 | 57 | 185 | 2.0 | 3.0 | 0.00 | 0.00 | 0.00 | 21 | 1021.8 |
| 20260502013701 | 58 | 161 | 2.0 | 2.0 | 0.00 | 0.00 | 0.00 | 21 | 1021.8 |
| 20260502013156 | 58 | 165 | 3.0 | 3.0 | 0.00 | 0.00 | 0.00 | 20 | 1021.7 |
| 20260502012654 | 58 | 158 | 4.0 | 4.0 | 0.00 | 0.00 | 0.00 | 19 | 1021.7 |
| 20260502012152 | 58 | 104 | 2.0 | 2.0 | 0.00 | 0.00 | 0.00 | 20 | 1021.7 |
| 20260502011648 | 58 | 162 | 3.0 | 3.0 | 0.00 | 0.00 | 0.00 | 20 | 1021.8 |
| 20260502011144 | 58 | 163 | 2.0 | 3.0 | 0.00 | 0.00 | 0.00 | 20 | 1021.5 |
| 20260502010642 | 58 | 194 | 4.0 | 4.0 | 0.00 | 0.00 | 0.00 | 19 | 1021.7 |
| 20260502010138 | 58 | 158 | 4.0 | 4.0 | 0.00 | 0.00 | 0.00 | 19 | 1021.4 |
| 20260502005635 | 58 | 193 | 5.0 | 6.0 | 0.00 | 0.00 | 0.00 | 19 | 1021.8 |
| 20260502005133 | 59 | 166 | 5.0 | 6.0 | 0.00 | 0.00 | 0.00 | 19 | 1021.7 |
| 20260502004628 | 58 | 181 | 5.0 | 7.0 | 0.00 | 0.00 | 0.00 | 19 | 1021.4 |
| 20260502004125 | 59 | 189 | 7.0 | 9.0 | 0.00 | 0.00 | 0.00 | 19 | 1021.3 |
| 20260502003624 | 60 | 180 | 2.0 | 2.0 | 0.00 | 0.00 | 0.00 | 19 | 1021.7 |
| 20260502003120 | 59 | 233 | 3.0 | 4.0 | 0.00 | 0.00 | 0.00 | 18 | 1021.7 |
| 20260502002616 | 59 | 343 | 2.0 | 2.0 | 0.00 | 0.00 | 0.00 | 19 | 1021.5 |
| 20260502002114 | 59 | 246 | 2.0 | 2.0 | 0.00 | 0.00 | 0.00 | 19 | 1021.5 |
| 20260502001612 | 59 | 207 | 3.0 | 4.0 | 0.00 | 0.00 | 0.00 | 19 | 1021.5 |
| 20260502001109 | 59 | 183 | 2.0 | 2.0 | 0.00 | 0.00 | 0.00 | 19 | 1021.7 |
| 20260502000607 | 59 | 275 | 5.0 | 6.0 | 0.00 | 0.00 | 0.00 | 19 | 1021.5 |
| 20260502000104 | 59 | 257 | 4.0 | 4.0 | 0.00 | 0.00 | 0.00 | 19 | 1021.7 |
| 20260501235600 | 59 | 183 | 2.0 | 3.0 | 0.00 | 0.00 | 0.00 | 19 | 1021.7 |
| 20260501235056 | 59 | 221 | 4.0 | 4.0 | 0.00 | 0.00 | 0.00 | 19 | 1021.8 |
| 20260501234551 | 59 | 230 | 4.0 | 4.0 | 0.00 | 0.00 | 0.00 | 19 | 1021.7 |
| 20260501234049 | 59 | 241 | 4.0 | 4.0 | 0.00 | 0.00 | 0.00 | 19 | 1021.7 |
| 20260501233547 | 59 | 263 | 7.0 | 8.0 | 0.00 | 0.00 | 0.00 | 19 | 1021.8 |
| 20260501233044 | 58 | 126 | 1.0 | 1.0 | 0.00 | 0.00 | 0.00 | 19 | 1021.7 |
| 20260501232540 | 58 | 187 | 6.0 | 7.0 | 0.00 | 0.00 | 0.00 | 19 | 1021.8 |
| 20260501232037 | 59 | 204 | 8.0 | 9.0 | 0.00 | 0.00 | 0.00 | 19 | 1021.8 |
| 20260501231535 | 58 | 145 | 3.0 | 4.0 | 0.00 | 0.00 | 0.00 | 20 | 1021.7 |
| 20260501231033 | 59 | 110 | 5.0 | 6.0 | 0.00 | 0.00 | 0.00 | 19 | 1021.7 |
| 20260501230532 | 58 | 218 | 5.0 | 6.0 | 0.00 | 0.00 | 0.00 | 19 | 1021.7 |
| 20260501230029 | 59 | 199 | 8.0 | 10.0 | 0.00 | 0.00 | 0.00 | 19 | 1021.8 |
| 20260501225527 | 58 | 183 | 4.0 | 6.0 | 0.00 | 0.00 | 0.00 | 20 | 1021.9 |
| 20260501225023 | 57 | 182 | 7.0 | 8.0 | 0.00 | 0.00 | 0.00 | 20 | 1021.7 |
| 20260501224520 | 58 | 277 | 6.0 | 7.0 | 0.00 | 0.00 | 0.00 | 20 | 1021.5 |
| 20260501224017 | 58 | 192 | 5.0 | 6.0 | 0.00 | 0.00 | 0.00 | 20 | 1021.9 |
| 20260501223514 | 60 | 167 | 6.0 | 8.0 | 0.00 | 0.00 | 0.00 | 19 | 1022.2 |
| 20260501223010 | 59 | 182 | 4.0 | 4.0 | 0.00 | 0.00 | 0.00 | 19 | 1021.9 |
| 20260501222506 | 58 | 213 | 2.0 | 2.0 | 0.00 | 0.00 | 0.00 | 19 | 1022.2 |
| 20260501222002 | 58 | 204 | 5.0 | 7.0 | 0.00 | 0.00 | 0.00 | 20 | 1022.0 |
| 20260501221459 | 60 | 221 | 2.0 | 3.0 | 0.00 | 0.00 | 0.00 | 19 | 1021.8 |
| 20260501220957 | 59 | 169 | 0.0 | 0.0 | 0.00 | 0.00 | 0.00 | 19 | 1022.0 |
| 20260501220454 | 58 | 157 | 1.0 | 2.0 | 0.00 | 0.00 | 0.00 | 19 | 1022.3 |
| 20260501215950 | 57 | 177 | 4.0 | 4.0 | 0.00 | 0.00 | 0.00 | 20 | 1021.9 |
| 20260501215447 | 58 | 194 | 5.0 | 7.0 | 0.00 | 0.00 | 0.00 | 20 | 1022.2 |
| 20260501214942 | 57 | 174 | 6.0 | 8.0 | 0.00 | 0.00 | 0.00 | 21 | 1022.3 |
| 20260501214438 | 57 | 142 | 7.0 | 9.0 | 0.00 | 0.00 | 0.00 | 22 | 1022.4 |
| 20260501213933 | 57 | 96 | 4.0 | 6.0 | 0.00 | 0.00 | 0.00 | 21 | 1022.4 |
| 20260501213431 | 57 | 179 | 5.0 | 6.0 | 0.00 | 0.00 | 0.00 | 20 | 1022.4 |
| 20260501212926 | 57 | 186 | 7.0 | 8.0 | 0.00 | 0.00 | 0.00 | 20 | 1022.4 |
| 20260501212424 | 58 | 140 | 1.0 | 3.0 | 0.00 | 0.00 | 0.00 | 19 | 1022.6 |
| 20260501211920 | 58 | 27 | 4.0 | 7.0 | 0.00 | 0.00 | 0.00 | 20 | 1022.6 |
| 20260501211418 | 58 | 331 | 2.0 | 3.0 | 0.00 | 0.00 | 0.00 | 20 | 1022.9 |
| 20260501210915 | 58 | 102 | 2.0 | 3.0 | 0.00 | 0.00 | 0.00 | 20 | 1022.9 |
| 20260501210412 | 58 | 193 | 1.0 | 1.0 | 0.00 | 0.00 | 0.00 | 20 | 1022.6 |
| 20260501205909 | 57 | 224 | 2.0 | 3.0 | 0.00 | 0.00 | 0.00 | 21 | 1022.9 |
| 20260501205406 | 57 | 43 | 2.0 | 2.0 | 0.00 | 0.00 | 0.00 | 21 | 1022.8 |
| 20260501204903 | 56 | 26 | 1.0 | 1.0 | 0.00 | 0.00 | 0.00 | 22 | 1022.8 |
| 20260501204358 | 57 | 98 | 2.0 | 3.0 | 0.00 | 0.00 | 0.00 | 22 | 1022.6 |
| 20260501203854 | 56 | 165 | 7.0 | 8.0 | 0.00 | 0.00 | 0.00 | 24 | 1022.8 |
| 20260501203352 | 55 | 68 | 1.0 | 1.0 | 0.00 | 0.00 | 0.00 | 24 | 1022.8 |
| 20260501202848 | 56 | 357 | 3.0 | 3.0 | 0.00 | 0.00 | 0.00 | 25 | 1022.6 |
| 20260501202346 | 55 | 353 | 9.0 | 9.0 | 0.00 | 0.00 | 0.00 | 26 | 1022.6 |
| 20260501201842 | 55 | 63 | 2.0 | 3.0 | 0.00 | 0.00 | 0.00 | 26 | 1022.8 |
| 20260501201339 | 55 | 131 | 2.0 | 2.0 | 0.00 | 0.00 | 0.00 | 25 | 1023.0 |
| 20260501200836 | 56 | 5 | 4.0 | 6.0 | 0.00 | 0.00 | 0.00 | 26 | 1022.9 |
| 20260501200333 | 54 | 16 | 2.0 | 2.0 | 0.00 | 0.00 | 0.00 | 28 | 1023.0 |
| 20260501195831 | 54 | 60 | 2.0 | 3.0 | 0.00 | 0.00 | 0.00 | 29 | 1023.3 |
| 20260501195326 | 55 | 30 | 3.0 | 4.0 | 0.00 | 0.00 | 0.00 | 26 | 1023.1 |
| 20260501194822 | 54 | 93 | 2.0 | 3.0 | 0.00 | 0.00 | 0.00 | 28 | 1023.3 |
| 20260501194319 | 54 | 194 | 5.0 | 6.0 | 0.00 | 0.00 | 0.00 | 27 | 1023.1 |
| 20260501193816 | 54 | 182 | 2.0 | 4.0 | 0.00 | 0.00 | 0.00 | 28 | 1023.1 |
| 20260501193315 | 53 | 178 | 5.0 | 6.0 | 0.00 | 0.00 | 0.00 | 28 | 1023.3 |
| 20260501192811 | 54 | 148 | 7.0 | 8.0 | 0.00 | 0.00 | 0.00 | 29 | 1023.1 |
| 20260501192309 | 53 | 158 | 8.0 | 9.0 | 0.00 | 0.00 | 0.00 | 31 | 1023.3 |
| 20260501191805 | 52 | 131 | 3.0 | 3.0 | 0.00 | 0.00 | 0.00 | 32 | 1023.1 |
| 20260501191303 | 53 | 192 | 6.0 | 8.0 | 0.00 | 0.00 | 0.00 | 32 | 1023.5 |
| 20260501190759 | 52 | 83 | 3.0 | 3.0 | 0.00 | 0.00 | 0.00 | 32 | 1023.4 |
| 20260501190254 | 53 | 90 | 0.0 | 0.0 | 0.00 | 0.00 | 0.00 | 32 | 1023.4 |
| 20260501185750 | 52 | 135 | 0.0 | 0.0 | 0.00 | 0.00 | 0.00 | 31 | 1023.4 |
| 20260501185246 | 51 | 148 | 2.0 | 3.0 | 0.00 | 0.00 | 0.00 | 33 | 1023.4 |
| 20260501184742 | 51 | 163 | 4.0 | 6.0 | 0.00 | 0.00 | 0.00 | 35 | 1023.5 |
| 20260501184238 | 52 | 183 | 6.0 | 8.0 | 0.00 | 0.00 | 0.00 | 34 | 1023.6 |
| 20260501183734 | 51 | 92 | 0.0 | 0.0 | 0.00 | 0.00 | 0.00 | 35 | 1023.6 |
| 20260501183231 | 50 | 175 | 2.0 | 3.0 | 0.00 | 0.00 | 0.00 | 35 | 1023.5 |
| 20260501182727 | 51 | 203 | 4.0 | 4.0 | 0.00 | 0.00 | 0.00 | 37 | 1023.6 |
| 20260501182225 | 51 | 192 | 7.0 | 8.0 | 0.00 | 0.00 | 0.00 | 36 | 1023.6 |
| 20260501181721 | 50 | 100 | 2.0 | 2.0 | 0.00 | 0.00 | 0.00 | 37 | 1023.7 |
| 20260501181219 | 50 | 161 | 6.0 | 7.0 | 0.00 | 0.00 | 0.00 | 37 | 1023.7 |
| 20260501180717 | 50 | 149 | 6.0 | 7.0 | 0.00 | 0.00 | 0.00 | 38 | 1023.7 |
| 20260501180212 | 49 | 240 | 6.0 | 7.0 | 0.00 | 0.00 | 0.00 | 39 | 1023.6 |
| 20260501175709 | 50 | 164 | 6.0 | 6.0 | 0.00 | 0.00 | 0.00 | 40 | 1023.7 |
| 20260501175206 | 50 | 138 | 6.0 | 7.0 | 0.00 | 0.00 | 0.00 | 40 | 1023.9 |
| 20260501174703 | 49 | 182 | 3.0 | 4.0 | 0.00 | 0.00 | 0.00 | 41 | 1023.9 |
| 20260501174200 | 49 | 103 | 0.0 | 1.0 | 0.00 | 0.00 | 0.00 | 40 | 1024.2 |
| 20260501173658 | 49 | 78 | 2.0 | 3.0 | 0.00 | 0.00 | 0.00 | 40 | 1024.1 |
| 20260501173155 | 48 | 114 | 0.0 | 0.0 | 0.00 | 0.00 | 0.00 | 41 | 1024.2 |
| 20260501172651 | 48 | 356 | 2.0 | 2.0 | 0.00 | 0.00 | 0.00 | 42 | 1024.0 |
| 20260501172146 | 48 | 209 | 4.0 | 6.0 | 0.00 | 0.00 | 0.00 | 42 | 1024.2 |
| 20260501171642 | 47 | 85 | 4.0 | 4.0 | 0.00 | 0.00 | 0.00 | 43 | 1024.2 |
| 20260501171139 | 49 | 136 | 4.0 | 4.0 | 0.00 | 0.00 | 0.00 | 43 | 1024.4 |
| 20260501170637 | 48 | 116 | 1.0 | 2.0 | 0.00 | 0.00 | 0.00 | 43 | 1024.2 |
| 20260501170133 | 46 | 18 | 3.0 | 3.0 | 0.00 | 0.00 | 0.00 | 45 | 1024.5 |
| 20260501165630 | 46 | 12 | 7.0 | 9.0 | 0.00 | 0.00 | 0.00 | 45 | 1024.4 |
| 20260501165127 | 47 | 248 | 5.0 | 7.0 | 0.00 | 0.00 | 0.00 | 44 | 1024.2 |
| 20260501164626 | 46 | 101 | 0.0 | 1.0 | 0.00 | 0.00 | 0.00 | 45 | 1024.1 |
| 20260501164122 | 46 | 215 | 2.0 | 3.0 | 0.00 | 0.00 | 0.00 | 45 | 1024.4 |
| 20260501163619 | 46 | 237 | 5.0 | 6.0 | 0.00 | 0.00 | 0.00 | 47 | 1024.1 |
| 20260501163116 | 46 | 109 | 0.0 | 0.0 | 0.00 | 0.00 | 0.00 | 49 | 1024.2 |
| 20260501162612 | 44 | 35 | 1.0 | 1.0 | 0.00 | 0.00 | 0.00 | 51 | 1024.2 |
| 20260501162109 | 44 | 178 | 3.0 | 3.0 | 0.00 | 0.00 | 0.00 | 51 | 1024.2 |
| 20260501161606 | 44 | 218 | 2.0 | 3.0 | 0.00 | 0.00 | 0.00 | 52 | 1024.5 |
| 20260501161102 | 44 | 177 | 3.0 | 3.0 | 0.00 | 0.00 | 0.00 | 51 | 1024.4 |
| 20260501160559 | 43 | 134 | 2.0 | 2.0 | 0.00 | 0.00 | 0.00 | 53 | 1024.4 |
| 20260501160056 | 44 | 129 | 1.0 | 1.0 | 0.00 | 0.00 | 0.00 | 55 | 1024.2 |
| 20260501155552 | 44 | 110 | 4.0 | 4.0 | 0.00 | 0.00 | 0.00 | 55 | 1024.4 |
| 20260501155050 | 43 | 100 | 0.0 | 0.0 | 0.00 | 0.00 | 0.00 | 56 | 1024.5 |
| 20260501154547 | 43 | 87 | 1.0 | 2.0 | 0.00 | 0.00 | 0.00 | 56 | 1024.6 |
| 20260501154044 | 44 | 55 | 0.0 | 0.0 | 0.00 | 0.00 | 0.00 | 56 | 1024.5 |
| 20260501153542 | 44 | 49 | 1.0 | 1.0 | 0.00 | 0.00 | 0.00 | 58 | 1024.2 |
| 20260501153038 | 43 | 96 | 0.0 | 0.0 | 0.00 | 0.00 | 0.00 | 58 | 1024.5 |
| 20260501152535 | 40 | 108 | 1.0 | 1.0 | 0.00 | 0.00 | 0.00 | 63 | 1024.6 |
| 20260501152032 | 39 | 25 | 2.0 | 2.0 | 0.00 | 0.00 | 0.00 | 65 | 1024.7 |
| 20260501151529 | 39 | 105 | 0.0 | 0.0 | 0.00 | 0.00 | 0.00 | 65 | 1024.2 |
| 20260501151026 | 41 | 23 | 2.0 | 2.0 | 0.00 | 0.00 | 0.00 | 62 | 1024.5 |
| 20260501150521 | 40 | 105 | 0.0 | 0.0 | 0.00 | 0.00 | 0.00 | 62 | 1024.6 |
| 20260501150019 | 39 | 121 | 0.0 | 0.0 | 0.00 | 0.00 | 0.00 | 63 | 1024.5 |
| 20260501145514 | 37 | 109 | 0.0 | 0.0 | 0.00 | 0.00 | 0.00 | 68 | 1024.5 |
| 20260501145013 | 37 | 120 | 0.0 | 1.0 | 0.00 | 0.00 | 0.00 | 67 | 1024.2 |
| 20260501144508 | 36 | 104 | 0.0 | 0.0 | 0.00 | 0.00 | 0.00 | 69 | 1024.5 |
| 20260501144004 | 38 | 116 | 1.0 | 1.0 | 0.00 | 0.00 | 0.00 | 65 | 1024.6 |
| 20260501143501 | 35 | 101 | 0.0 | 0.0 | 0.00 | 0.00 | 0.00 | 70 | 1024.7 |
| 20260501142957 | 33 | 102 | 0.0 | 0.0 | 0.00 | 0.00 | 0.00 | 75 | 1024.5 |
| 20260501142455 | 34 | 76 | 1.0 | 1.0 | 0.00 | 0.00 | 0.00 | 70 | 1024.5 |